Time;durP1;ratioP1;P1;durP2;ratioP2;P2;SDS_P1;SDS_P2;PMS_P1;PMS_P2;Temp;Humidity;BMP_temperature;BMP_pressure;BME280_temperature;BME280_humidity;BME280_pressure;Samples;Min_cycle;Max_cycle;Signal;HPM_P1;HPM_P2
2021/07/31 00:01:03;;;;;;;0.40;0.30;;;20.40;99.90;;;;;;5092160;28;20368;-74
2021/07/31 00:03:29;;;;;;;0.40;0.20;;;20.40;99.90;;;;;;5074641;28;20750;-74
2021/07/31 00:05:55;;;;;;;0.40;0.30;;;20.50;99.90;;;;;;5074002;28;20485;-75
2021/07/31 00:08:20;;;;;;;0.40;0.20;;;20.50;99.90;;;;;;5092715;28;20382;-75
2021/07/31 00:10:46;;;;;;;0.40;0.30;;;20.70;99.90;;;;;;5074015;28;20401;-74
2021/07/31 00:13:12;;;;;;;0.40;0.20;;;20.30;99.90;;;;;;5092181;28;20493;-74
2021/07/31 00:15:37;;;;;;;0.40;0.30;;;20.30;99.90;;;;;;5074557;28;20390;-74
2021/07/31 00:18:03;;;;;;;0.40;0.30;;;20.40;99.90;;;;;;5091497;28;20800;-74
2021/07/31 00:20:28;;;;;;;0.40;0.20;;;20.20;99.90;;;;;;5092643;28;20436;-74
2021/07/31 00:22:54;;;;;;;0.40;0.20;;;20.50;99.90;;;;;;5073611;28;20386;-74
2021/07/31 00:25:20;;;;;;;0.40;0.30;;;20.30;99.90;;;;;;5092469;28;20819;-73
2021/07/31 00:27:45;;;;;;;0.40;0.20;;;20.30;99.90;;;;;;5092035;28;20724;-73
2021/07/31 00:30:11;;;;;;;0.40;0.40;;;20.20;99.90;;;;;;5092497;28;20736;-74
2021/07/31 00:32:37;;;;;;;0.40;0.25;;;20.30;99.90;;;;;;5092020;28;20417;-74
2021/07/31 00:35:03;;;;;;;0.40;0.30;;;20.40;99.90;;;;;;5091575;28;20845;-74
2021/07/31 00:37:28;;;;;;;0.40;0.30;;;20.40;99.90;;;;;;5091855;28;20413;-74
2021/07/31 00:39:54;;;;;;;0.40;0.20;;;20.50;99.90;;;;;;5091467;28;20385;-73
2021/07/31 00:42:20;;;;;;;0.40;0.20;;;20.40;99.90;;;;;;5092079;28;20751;-75
2021/07/31 00:44:45;;;;;;;0.40;0.20;;;20.10;99.90;;;;;;5092221;28;20386;-74
2021/07/31 00:47:11;;;;;;;0.40;0.30;;;20.30;99.90;;;;;;5091359;28;20370;-74
2021/07/31 00:49:37;;;;;;;0.40;0.25;;;20.30;99.90;;;;;;5091673;28;20917;-74
2021/07/31 00:52:05;;;;;;;0.40;0.30;;;20.40;99.90;;;;;;5091151;28;20410;-76
2021/07/31 00:54:31;;;;;;;0.40;0.30;;;20.20;99.90;;;;;;5091512;28;20409;-75
2021/07/31 00:56:58;;;;;;;0.40;0.30;;;20.30;99.90;;;;;;5073286;28;20454;-74
2021/07/31 00:59:24;;;;;;;0.40;0.20;;;20.20;99.90;;;;;;5091297;28;20404;-74
2021/07/31 01:01:49;;;;;;;0.40;0.20;;;19.80;99.90;;;;;;5090796;28;20473;-73
2021/07/31 01:04:15;;;;;;;0.40;0.20;;;20.10;99.90;;;;;;5091520;28;20377;-74
2021/07/31 01:06:41;;;;;;;0.40;0.20;;;19.60;99.90;;;;;;5091712;28;20432;-75
2021/07/31 01:09:07;;;;;;;0.40;0.30;;;19.60;99.90;;;;;;5090788;28;20390;-74
2021/07/31 01:11:34;;;;;;;0.40;0.20;;;19.80;99.90;;;;;;5091754;28;20397;-76
2021/07/31 01:14:00;;;;;;;0.40;0.30;;;19.60;99.90;;;;;;5090749;28;20497;-74
2021/07/31 01:16:25;;;;;;;0.40;0.30;;;19.50;99.90;;;;;;5091449;28;20799;-75
2021/07/31 01:18:51;;;;;;;0.40;0.20;;;19.60;99.90;;;;;;5090502;28;20378;-73
2021/07/31 01:21:41;;;;;;;0.40;0.20;;;19.50;99.90;;;;;;5107136;28;20386;-76
2021/07/31 01:24:09;;;;;;;0.40;0.20;;;19.80;99.90;;;;;;5090928;28;20472;-76
2021/07/31 01:26:45;;;;;;;0.40;0.30;;;19.50;99.90;;;;;;5073457;28;20378;-77
2021/07/31 01:29:14;;;;;;;0.40;0.30;;;19.50;99.90;;;;;;5090362;28;20401;-76
2021/07/31 01:31:40;;;;;;;0.40;0.30;;;19.80;99.90;;;;;;5091265;28;20378;-75
2021/07/31 01:34:06;;;;;;;0.40;0.30;;;19.30;99.90;;;;;;5090639;28;20414;-76
2021/07/31 01:36:32;;;;;;;0.40;0.30;;;19.40;99.90;;;;;;5091381;28;20562;-77
2021/07/31 01:38:58;;;;;;;0.40;0.20;;;19.40;99.90;;;;;;5090652;28;20378;-76
2021/07/31 01:41:24;;;;;;;0.40;0.30;;;19.40;99.90;;;;;;5091275;28;20442;-75
2021/07/31 01:43:51;;;;;;;0.40;0.30;;;19.50;99.90;;;;;;5090887;28;20425;-73
2021/07/31 01:46:17;;;;;;;0.40;0.20;;;19.30;99.90;;;;;;5091183;28;20393;-74
2021/07/31 01:48:43;;;;;;;0.40;0.30;;;19.40;99.90;;;;;;5090882;28;20866;-75
2021/07/31 01:51:08;;;;;;;0.40;0.30;;;19.30;99.90;;;;;;5090281;28;20385;-74
2021/07/31 01:53:34;;;;;;;0.40;0.30;;;19.30;99.90;;;;;;5106595;28;20402;-75
2021/07/31 01:56:00;;;;;;;0.40;0.30;;;19.00;99.90;;;;;;5090597;28;20378;-74
2021/07/31 01:58:25;;;;;;;0.40;0.30;;;19.30;99.90;;;;;;5090995;28;20381;-75
2021/07/31 02:00:55;;;;;;;0.40;0.20;;;19.30;99.90;;;;;;5090900;28;20394;-75
2021/07/31 02:03:21;;;;;;;0.40;0.30;;;19.40;99.90;;;;;;5091068;28;20380;-73
2021/07/31 02:05:47;;;;;;;0.40;0.30;;;19.50;99.90;;;;;;5072797;28;20797;-74
2021/07/31 02:08:13;;;;;;;0.40;0.20;;;19.30;99.90;;;;;;5090047;28;20471;-74
2021/07/31 02:10:39;;;;;;;0.40;0.30;;;19.30;99.90;;;;;;5090957;28;20431;-74
2021/07/31 02:13:04;;;;;;;0.40;0.20;;;19.30;99.90;;;;;;5090025;28;20517;-74
2021/07/31 02:15:30;;;;;;;0.40;0.30;;;19.20;99.90;;;;;;5091001;28;20472;-74
2021/07/31 02:17:56;;;;;;;0.40;0.30;;;19.20;99.90;;;;;;5090097;28;20378;-74
2021/07/31 02:20:22;;;;;;;0.40;0.30;;;19.20;99.90;;;;;;5090712;28;20385;-74
2021/07/31 02:22:49;;;;;;;0.40;0.30;;;19.20;99.90;;;;;;5094558;28;20388;-74
2021/07/31 02:25:14;;;;;;;0.40;0.20;;;19.20;99.90;;;;;;5093651;28;20421;-74
2021/07/31 02:27:40;;;;;;;0.50;0.50;;;19.30;99.90;;;;;;5094401;28;20437;-74
2021/07/31 02:30:06;;;;;;;0.40;0.20;;;19.30;99.90;;;;;;5093875;28;20730;-74
2021/07/31 02:32:32;;;;;;;0.40;0.30;;;19.20;99.90;;;;;;5094132;28;20445;-74
2021/07/31 02:34:58;;;;;;;0.40;0.20;;;19.30;99.90;;;;;;5093859;28;20410;-74
2021/07/31 02:37:24;;;;;;;0.40;0.30;;;19.10;99.90;;;;;;5094217;28;20398;-74
2021/07/31 02:39:49;;;;;;;0.40;0.30;;;19.00;99.90;;;;;;5094284;28;20386;-74
2021/07/31 02:42:16;;;;;;;0.40;0.30;;;18.90;99.90;;;;;;5094062;28;20730;-73
2021/07/31 02:44:41;;;;;;;0.40;0.20;;;18.90;99.90;;;;;;5094215;28;20859;-73
2021/07/31 02:47:07;;;;;;;0.40;0.30;;;18.90;99.90;;;;;;5093480;28;20374;-74
2021/07/31 02:49:33;;;;;;;0.40;0.30;;;19.00;99.90;;;;;;5075640;28;20414;-74
2021/07/31 02:51:58;;;;;;;0.40;0.30;;;19.00;99.90;;;;;;5093446;28;20381;-73
2021/07/31 02:54:24;;;;;;;0.40;0.30;;;18.90;99.90;;;;;;5094105;28;20392;-74
2021/07/31 02:56:50;;;;;;;0.40;0.20;;;18.90;99.90;;;;;;5093849;28;20374;-75
2021/07/31 02:59:15;;;;;;;0.40;0.30;;;18.70;99.90;;;;;;5093364;28;20379;-74
2021/07/31 03:01:41;;;;;;;0.40;0.30;;;18.90;99.90;;;;;;5093924;28;20378;-74
2021/07/31 03:04:07;;;;;;;0.40;0.30;;;18.90;99.90;;;;;;5093595;28;20443;-75
2021/07/31 03:06:32;;;;;;;0.40;0.20;;;19.00;99.90;;;;;;5093552;28;20378;-74
2021/07/31 03:08:58;;;;;;;0.40;0.30;;;18.90;99.90;;;;;;5093202;28;20469;-75
2021/07/31 03:11:24;;;;;;;0.40;0.20;;;18.80;99.90;;;;;;5093638;28;20457;-75
2021/07/31 03:13:49;;;;;;;0.40;0.20;;;18.70;99.90;;;;;;5093629;28;20414;-75
2021/07/31 03:16:15;;;;;;;0.40;0.20;;;18.90;99.90;;;;;;5092925;28;20382;-75
2021/07/31 03:18:42;;;;;;;0.40;0.20;;;18.80;99.90;;;;;;5094004;28;20854;-75
2021/07/31 03:21:10;;;;;;;0.40;0.30;;;18.80;99.90;;;;;;5092798;28;20382;-74
2021/07/31 03:23:36;;;;;;;0.40;0.30;;;18.80;99.90;;;;;;5093619;28;20390;-74
2021/07/31 03:26:02;;;;;;;0.40;0.30;;;18.80;99.90;;;;;;5092776;28;20380;-75
2021/07/31 03:28:29;;;;;;;0.40;0.20;;;18.80;99.90;;;;;;5093450;28;20402;-75
2021/07/31 03:30:55;;;;;;;0.40;0.30;;;18.80;99.90;;;;;;5075108;28;20382;-75
2021/07/31 03:33:21;;;;;;;0.40;0.30;;;18.60;99.90;;;;;;5092036;28;20786;-75
2021/07/31 03:35:47;;;;;;;0.40;0.30;;;18.80;99.90;;;;;;5093165;28;20370;-75
2021/07/31 03:38:13;;;;;;;0.40;0.20;;;18.70;99.90;;;;;;5092666;28;20474;-74
2021/07/31 03:40:39;;;;;;;0.40;0.20;;;18.80;99.90;;;;;;5093062;28;20465;-74
2021/07/31 03:43:04;;;;;;;0.40;0.30;;;18.60;99.90;;;;;;5092510;28;20854;-74
2021/07/31 03:45:30;;;;;;;0.40;0.20;;;18.60;99.90;;;;;;5092810;28;20742;-75
2021/07/31 03:47:56;;;;;;;0.40;0.30;;;18.40;99.90;;;;;;5092739;28;20727;-74
2021/07/31 03:50:22;;;;;;;0.40;0.20;;;18.50;99.90;;;;;;5092246;28;20374;-74
2021/07/31 03:52:48;;;;;;;0.40;0.30;;;18.50;99.90;;;;;;5092797;28;20928;-74
2021/07/31 03:55:13;;;;;;;0.40;0.20;;;18.40;99.90;;;;;;5092240;28;20435;-74
2021/07/31 03:57:39;;;;;;;0.40;0.20;;;18.30;99.90;;;;;;5092848;28;20465;-75
2021/07/31 04:00:06;;;;;;;0.40;0.30;;;18.10;99.90;;;;;;5092096;28;20787;-75
2021/07/31 04:02:33;;;;;;;0.40;0.30;;;17.90;99.90;;;;;;5092783;28;20386;-75
2021/07/31 04:04:59;;;;;;;0.40;0.30;;;17.90;99.90;;;;;;5092666;28;20723;-75
2021/07/31 04:07:25;;;;;;;0.40;0.20;;;17.80;99.90;;;;;;5092939;28;20404;-75
2021/07/31 04:09:51;;;;;;;0.40;0.30;;;18.00;99.90;;;;;;5092565;28;20390;-75
2021/07/31 04:12:17;;;;;;;0.40;0.30;;;18.00;99.90;;;;;;5091748;28;20406;-75
2021/07/31 04:14:43;;;;;;;0.40;0.20;;;17.90;99.90;;;;;;5074541;28;20401;-75
2021/07/31 04:17:11;;;;;;;0.40;0.30;;;18.00;99.90;;;;;;5091934;28;20850;-75
2021/07/31 04:19:40;;;;;;;0.40;0.20;;;18.10;99.90;;;;;;5092526;28;20789;-75
2021/07/31 04:22:05;;;;;;;0.40;0.20;;;18.10;99.90;;;;;;5091597;28;20382;-75
2021/07/31 04:24:31;;;;;;;0.40;0.30;;;18.30;99.90;;;;;;5092533;28;20907;-75
2021/07/31 04:26:57;;;;;;;0.40;0.30;;;18.20;99.90;;;;;;5092267;28;20405;-75
2021/07/31 04:29:23;;;;;;;0.40;0.30;;;18.20;99.90;;;;;;5092048;28;20933;-75
2021/07/31 04:31:49;;;;;;;0.40;0.30;;;18.10;99.90;;;;;;5091908;28;20438;-75
2021/07/31 04:34:15;;;;;;;0.40;0.20;;;18.20;99.90;;;;;;5073536;28;20753;-75
2021/07/31 04:36:41;;;;;;;0.40;0.30;;;18.30;99.90;;;;;;5091973;28;20459;-75
2021/07/31 04:39:07;;;;;;;0.40;0.30;;;18.10;99.90;;;;;;5107295;28;20720;-75
2021/07/31 04:41:33;;;;;;;0.40;0.20;;;18.10;99.90;;;;;;5092056;28;20414;-75
2021/07/31 04:44:00;;;;;;;0.40;0.30;;;18.10;99.90;;;;;;5091370;28;20451;-75
2021/07/31 04:46:26;;;;;;;0.40;0.30;;;18.40;99.90;;;;;;5091634;28;20380;-75
2021/07/31 04:48:51;;;;;;;0.50;0.50;;;18.30;99.90;;;;;;5092084;28;20465;-75
2021/07/31 04:51:17;;;;;;;0.50;0.40;;;18.40;99.90;;;;;;5091262;28;20438;-75
2021/07/31 04:53:43;;;;;;;0.40;0.20;;;18.50;99.90;;;;;;5091871;28;20460;-76
2021/07/31 04:56:09;;;;;;;0.40;0.20;;;18.60;99.90;;;;;;5091274;28;20461;-75
2021/07/31 04:58:34;;;;;;;0.40;0.20;;;18.60;99.90;;;;;;5091969;28;20539;-75
2021/07/31 05:01:00;;;;;;;0.40;0.20;;;18.60;99.90;;;;;;5091813;28;20381;-75
2021/07/31 05:03:27;;;;;;;0.40;0.20;;;18.70;99.90;;;;;;5091194;28;20870;-75
2021/07/31 05:05:53;;;;;;;0.40;0.30;;;18.70;99.90;;;;;;5091787;28;20366;-74
2021/07/31 05:08:19;;;;;;;0.40;0.30;;;18.80;99.90;;;;;;5091378;28;20393;-74
2021/07/31 05:10:47;;;;;;;0.40;0.30;;;18.80;99.90;;;;;;5091864;28;20386;-75
2021/07/31 05:13:13;;;;;;;0.40;0.20;;;18.80;99.90;;;;;;5091011;28;20410;-76
2021/07/31 05:15:40;;;;;;;0.40;0.30;;;18.90;99.90;;;;;;5091482;28;20374;-74
2021/07/31 05:18:07;;;;;;;0.40;0.20;;;18.80;99.90;;;;;;5091097;28;20382;-75
2021/07/31 05:20:33;;;;;;;0.40;0.30;;;18.80;99.90;;;;;;5091436;28;20402;-74
2021/07/31 05:22:59;;;;;;;0.40;0.30;;;18.80;99.90;;;;;;5091539;28;20386;-74
2021/07/31 05:25:25;;;;;;;0.40;0.30;;;18.80;99.90;;;;;;5090582;28;20380;-74
2021/07/31 05:27:50;;;;;;;0.40;0.20;;;19.10;99.90;;;;;;5091279;28;20825;-74
2021/07/31 05:30:16;;;;;;;0.40;0.30;;;18.80;99.90;;;;;;5090855;28;20870;-74
2021/07/31 05:32:42;;;;;;;0.40;0.30;;;18.80;99.90;;;;;;5091061;28;20883;-76
2021/07/31 05:35:08;;;;;;;0.40;0.30;;;18.80;99.90;;;;;;5090885;28;20389;-75
2021/07/31 05:37:34;;;;;;;0.40;0.20;;;18.70;99.90;;;;;;5091104;28;20389;-75
2021/07/31 05:40:00;;;;;;;0.40;0.20;;;18.70;99.90;;;;;;5091437;28;20897;-75
2021/07/31 05:42:26;;;;;;;0.40;0.20;;;18.60;99.90;;;;;;5090459;28;20472;-74
2021/07/31 05:45:00;;;;;;;0.40;0.20;;;18.60;99.90;;;;;;5091463;28;20983;-75
2021/07/31 05:47:28;;;;;;;0.40;0.30;;;18.60;99.90;;;;;;5090437;28;20878;-75
2021/07/31 05:49:55;;;;;;;0.40;0.30;;;18.70;99.90;;;;;;5091516;28;20385;-74
2021/07/31 05:52:24;;;;;;;0.40;0.20;;;18.80;99.90;;;;;;5090575;28;20490;-74
2021/07/31 05:54:51;;;;;;;0.40;0.30;;;18.90;99.90;;;;;;5091867;28;20382;-74
2021/07/31 05:57:17;;;;;;;0.40;0.20;;;18.80;99.90;;;;;;5094588;28;20799;-75
2021/07/31 05:59:42;;;;;;;0.40;0.30;;;18.80;99.90;;;;;;5095245;28;20451;-74
2021/07/31 06:02:09;;;;;;;0.40;0.20;;;19.00;99.90;;;;;;5094527;28;20466;-77
2021/07/31 06:04:36;;;;;;;0.40;0.30;;;18.70;99.90;;;;;;5077359;28;20397;-74
2021/07/31 06:07:02;;;;;;;0.40;0.30;;;18.90;99.90;;;;;;5094860;28;20378;-74
2021/07/31 06:09:27;;;;;;;0.40;0.20;;;18.90;99.90;;;;;;5094586;28;20799;-75
2021/07/31 06:11:53;;;;;;;0.40;0.20;;;18.90;99.90;;;;;;5094570;28;20431;-75
2021/07/31 06:14:19;;;;;;;0.40;0.20;;;18.90;99.90;;;;;;5094058;28;20380;-74
2021/07/31 06:16:44;;;;;;;0.40;0.20;;;18.90;99.90;;;;;;5094576;28;20385;-76
2021/07/31 06:19:10;;;;;;;0.40;0.22;;;18.70;99.90;;;;;;5094357;28;20388;-76
2021/07/31 06:21:36;;;;;;;0.40;0.20;;;18.90;99.90;;;;;;5094995;28;20378;-76
2021/07/31 06:24:03;;;;;;;0.40;0.30;;;19.00;99.90;;;;;;5094867;28;20430;-76
2021/07/31 06:26:28;;;;;;;0.40;0.20;;;19.00;99.90;;;;;;5094107;28;20366;-75
2021/07/31 06:28:54;;;;;;;0.40;0.30;;;19.00;99.90;;;;;;5094298;28;20405;-76
2021/07/31 06:31:20;;;;;;;0.40;0.30;;;18.90;99.90;;;;;;5094086;28;20396;-75
2021/07/31 06:33:46;;;;;;;0.40;0.20;;;19.10;99.90;;;;;;5094448;28;20402;-75
2021/07/31 06:36:18;;;;;;;0.40;0.30;;;19.10;99.90;;;;;;5094030;28;20381;-75
2021/07/31 06:38:46;;;;;;;0.40;0.20;;;19.00;99.90;;;;;;5094807;28;20543;-75
2021/07/31 06:41:12;;;;;;;0.40;0.30;;;19.00;99.90;;;;;;5075753;28;20858;-75
2021/07/31 06:43:37;;;;;;;0.40;0.30;;;18.90;99.90;;;;;;5094477;28;20383;-75
2021/07/31 06:46:14;;;;;;;0.40;0.22;;;18.90;99.90;;;;;;5094487;28;20377;-75
2021/07/31 06:48:40;;;;;;;0.40;0.20;;;19.00;99.90;;;;;;5094289;28;20390;-75
2021/07/31 06:51:07;;;;;;;0.40;0.30;;;19.20;99.90;;;;;;5094301;28;20397;-75
2021/07/31 06:53:32;;;;;;;0.40;0.30;;;19.20;99.90;;;;;;5093161;28;20904;-74
2021/07/31 06:55:59;;;;;;;0.40;0.30;;;19.10;99.90;;;;;;5094346;28;20370;-75
2021/07/31 06:58:25;;;;;;;0.40;0.30;;;19.00;99.90;;;;;;5093542;28;20843;-75
2021/07/31 07:00:51;;;;;;;0.40;0.30;;;19.30;99.90;;;;;;5076043;28;20443;-74
2021/07/31 07:03:17;;;;;;;0.40;0.20;;;19.40;99.90;;;;;;5093159;28;20413;-73
2021/07/31 07:05:43;;;;;;;0.40;0.30;;;19.40;99.90;;;;;;5093781;28;20378;-75
2021/07/31 07:08:08;;;;;;;0.40;0.20;;;19.50;99.90;;;;;;5092825;28;20422;-75
2021/07/31 07:10:34;;;;;;;0.40;0.20;;;19.40;99.90;;;;;;5093605;28;20442;-75
2021/07/31 07:13:00;;;;;;;0.40;0.20;;;19.30;99.90;;;;;;5093773;28;21025;-74
2021/07/31 07:15:29;;;;;;;0.40;0.20;;;19.50;99.90;;;;;;5093098;28;20403;-75
2021/07/31 07:17:55;;;;;;;0.40;0.30;;;19.50;99.90;;;;;;5093811;28;20405;-74
2021/07/31 07:20:21;;;;;;;0.40;0.30;;;19.80;99.90;;;;;;5093157;28;20769;-75
2021/07/31 07:22:47;;;;;;;0.40;0.30;;;19.40;99.90;;;;;;5093452;28;20385;-77
2021/07/31 07:25:13;;;;;;;0.40;0.30;;;19.40;99.90;;;;;;5093068;28;20386;-76
2021/07/31 07:27:39;;;;;;;0.40;0.20;;;19.40;99.90;;;;;;5093452;28;20395;-73
2021/07/31 07:30:06;;;;;;;0.40;0.30;;;19.60;99.90;;;;;;5093615;28;20393;-74
2021/07/31 07:32:33;;;;;;;0.40;0.20;;;19.70;99.90;;;;;;5092719;28;20417;-75
2021/07/31 07:34:59;;;;;;;0.40;0.20;;;19.80;99.90;;;;;;5075411;28;20378;-75
2021/07/31 07:37:25;;;;;;;0.40;0.30;;;19.80;99.90;;;;;;5093060;28;20397;-77
2021/07/31 07:39:50;;;;;;;0.40;0.30;;;19.80;99.90;;;;;;5093419;28;20469;-75
2021/07/31 07:42:16;;;;;;;0.40;0.28;;;19.80;99.90;;;;;;5092662;28;20380;-75
2021/07/31 07:44:41;;;;;;;0.40;0.30;;;19.80;99.90;;;;;;5093285;28;20730;-76
2021/07/31 07:47:09;;;;;;;0.40;0.30;;;20.00;99.90;;;;;;5093267;28;20371;-74
2021/07/31 07:49:35;;;;;;;0.40;0.30;;;20.00;99.90;;;;;;5092320;28;20378;-76
2021/07/31 07:52:00;;;;;;;0.40;0.30;;;20.00;99.90;;;;;;5108731;28;20390;-75
2021/07/31 07:54:28;;;;;;;0.40;0.30;;;20.30;99.90;;;;;;5092702;28;20416;-75
2021/07/31 07:56:54;;;;;;;0.40;0.30;;;20.10;99.80;;;;;;5093046;28;20381;-75
2021/07/31 07:59:22;;;;;;;0.40;0.20;;;20.10;98.10;;;;;;5092325;28;20371;-75
2021/07/31 08:01:48;;;;;;;0.40;0.30;;;20.20;98.30;;;;;;5092723;28;20381;-75
2021/07/31 08:04:14;;;;;;;0.40;0.20;;;20.30;99.90;;;;;;5092211;28;20370;-74
2021/07/31 08:06:40;;;;;;;0.40;0.20;;;20.20;96.10;;;;;;5092650;28;20537;-75
2021/07/31 08:09:06;;;;;;;0.40;0.20;;;20.40;95.80;;;;;;5092562;28;20874;-76
2021/07/31 08:11:32;;;;;;;0.40;0.30;;;20.30;98.80;;;;;;5092211;28;20742;-76
2021/07/31 08:13:59;;;;;;;0.40;0.30;;;20.80;95.50;;;;;;5108501;28;20402;-74
2021/07/31 08:16:24;;;;;;;0.40;0.20;;;20.70;93.50;;;;;;5091739;28;20854;-76
2021/07/31 08:18:50;;;;;;;0.40;0.20;;;20.80;91.70;;;;;;5091641;28;20382;-75
2021/07/31 08:21:16;;;;;;;0.40;0.20;;;20.80;94.10;;;;;;5091968;28;20835;-77
2021/07/31 08:23:43;;;;;;;0.40;0.30;;;20.80;92.60;;;;;;5074614;28;20390;-75
2021/07/31 08:26:15;;;;;;;0.40;0.20;;;20.70;96.20;;;;;;5092447;28;20390;-75
2021/07/31 08:28:42;;;;;;;0.40;0.20;;;21.00;97.20;;;;;;5091984;28;20438;-75
2021/07/31 08:31:09;;;;;;;0.40;0.30;;;21.20;96.00;;;;;;5074655;28;20378;-75
2021/07/31 08:33:35;;;;;;;0.40;0.20;;;21.20;93.80;;;;;;5091589;28;20766;-76
2021/07/31 08:36:02;;;;;;;0.40;0.30;;;21.10;92.00;;;;;;5092688;28;20729;-77
2021/07/31 08:38:28;;;;;;;0.40;0.30;;;21.30;92.50;;;;;;5091421;28;20394;-76
2021/07/31 08:40:54;;;;;;;0.40;0.20;;;21.20;92.20;;;;;;5092326;28;20393;-75
2021/07/31 08:43:19;;;;;;;0.40;0.30;;;21.10;95.60;;;;;;5091576;28;20379;-75
2021/07/31 08:45:45;;;;;;;0.40;0.30;;;21.00;92.30;;;;;;5092246;28;20428;-75
2021/07/31 08:48:12;;;;;;;0.40;0.30;;;21.10;92.40;;;;;;5092016;28;20726;-75
2021/07/31 08:50:39;;;;;;;0.40;0.30;;;20.80;92.40;;;;;;5091423;28;20378;-75
2021/07/31 08:53:05;;;;;;;0.40;0.30;;;21.00;92.90;;;;;;5091911;28;20405;-76
2021/07/31 08:55:31;;;;;;;0.40;0.20;;;21.30;96.00;;;;;;5091274;28;20389;-75
2021/07/31 08:58:02;;;;;;;0.40;0.20;;;21.30;92.10;;;;;;5091964;28;20850;-74
2021/07/31 09:00:28;;;;;;;0.40;0.30;;;21.30;94.50;;;;;;5091147;28;20862;-75
2021/07/31 09:02:53;;;;;;;0.40;0.30;;;21.20;91.40;;;;;;5091923;28;20376;-75
2021/07/31 09:05:48;;;;;;;0.40;0.30;;;20.90;92.70;;;;;;5090920;28;20858;-75
2021/07/31 09:08:14;;;;;;;0.40;0.20;;;21.20;91.70;;;;;;5052648;28;20417;-75
2021/07/31 09:10:43;;;;;;;0.40;0.30;;;20.80;94.10;;;;;;5091066;28;20390;-75
2021/07/31 09:13:10;;;;;;;0.40;0.20;;;21.30;93.30;;;;;;5091430;28;20944;-74
2021/07/31 09:15:52;;;;;;;0.40;0.20;;;20.90;92.10;;;;;;5090990;28;20758;-75
2021/07/31 09:18:18;;;;;;;0.40;0.20;;;21.00;92.60;;;;;;5073279;28;20759;-74
2021/07/31 09:20:44;;;;;;;0.40;0.30;;;20.90;91.80;;;;;;5091473;28;20378;-75
2021/07/31 09:23:10;;;;;;;0.40;0.30;;;20.90;94.50;;;;;;5091598;28;20443;-74
2021/07/31 09:25:37;;;;;;;0.40;0.30;;;20.90;92.00;;;;;;5090861;28;20390;-75
2021/07/31 09:28:23;;;;;;;0.40;0.30;;;20.90;92.00;;;;;;5091331;28;20405;-74
2021/07/31 09:30:50;;;;;;;0.40;0.30;;;21.00;96.70;;;;;;5055864;28;20828;-74
2021/07/31 09:33:18;;;;;;;0.40;0.30;;;21.30;95.10;;;;;;5091105;28;20424;-74
2021/07/31 09:35:59;;;;;;;0.40;0.20;;;21.40;93.70;;;;;;5091160;28;20409;-74
2021/07/31 09:38:37;;;;;;;0.40;0.20;;;21.40;90.40;;;;;;5090581;28;20401;-74
2021/07/31 09:41:23;;;;;;;0.40;0.20;;;21.40;91.20;;;;;;5091309;28;20378;-75
2021/07/31 09:44:00;;;;;;;0.40;0.20;;;21.20;92.60;;;;;;5091451;28;20816;-76
2021/07/31 09:46:39;;;;;;;0.40;0.30;;;21.60;91.00;;;;;;5090724;28;20457;-74
2021/07/31 09:49:07;;;;;;;0.40;0.30;;;21.40;90.20;;;;;;5091418;28;20393;-78
2021/07/31 09:51:43;;;;;;;0.40;0.30;;;21.50;88.10;;;;;;5090602;28;20397;-77
2021/07/31 09:54:11;;;;;;;0.40;0.20;;;21.50;86.00;;;;;;5090713;28;20504;-75
2021/07/31 09:56:43;;;;;;;0.40;0.20;;;21.60;87.60;;;;;;5090648;28;20378;-75
2021/07/31 09:59:10;;;;;;;0.40;0.30;;;21.90;86.50;;;;;;5091078;28;20485;-77
2021/07/31 10:01:37;;;;;;;0.40;0.20;;;22.00;86.60;;;;;;5090164;28;20458;-76
2021/07/31 10:04:04;;;;;;;0.40;0.30;;;21.80;83.00;;;;;;5090737;28;20386;-76
2021/07/31 10:06:33;;;;;;;0.40;0.30;;;21.80;83.20;;;;;;5090008;28;20382;-75
2021/07/31 10:09:04;;;;;;;0.40;0.30;;;21.80;86.80;;;;;;5090846;28;20476;-77
2021/07/31 10:11:32;;;;;;;0.40;0.30;;;22.00;84.90;;;;;;5090430;28;20382;-77
2021/07/31 10:13:59;;;;;;;0.40;0.20;;;21.70;88.40;;;;;;5090930;28;20405;-77
2021/07/31 10:16:25;;;;;;;0.40;0.30;;;21.90;92.30;;;;;;5090337;28;20439;-75
2021/07/31 10:19:08;;;;;;;0.40;0.30;;;21.80;92.70;;;;;;5091464;28;20719;-76
2021/07/31 10:21:45;;;;;;;0.40;0.30;;;21.90;92.20;;;;;;5090311;28;20378;-76
2021/07/31 10:24:10;;;;;;;0.40;0.30;;;22.10;93.10;;;;;;5090674;28;20473;-76
2021/07/31 10:26:36;;;;;;;0.40;0.20;;;21.80;92.00;;;;;;5090084;28;20537;-76
2021/07/31 10:29:41;;;;;;;0.40;0.30;;;21.70;88.30;;;;;;5090138;28;20734;-74
2021/07/31 10:32:22;;;;;;;0.40;0.30;;;21.90;87.10;;;;;;5089536;28;20747;-78
2021/07/31 10:34:57;;;;;;;0.40;0.30;;;21.90;87.50;;;;;;5072686;28;20418;-75
2021/07/31 10:37:31;;;;;;;0.40;0.30;;;22.30;87.50;;;;;;5090477;28;20394;-76
2021/07/31 10:40:06;;;;;;;0.40;0.20;;;22.40;90.70;;;;;;5090625;28;20418;-75
2021/07/31 10:42:47;;;;;;;0.40;0.30;;;22.60;87.50;;;;;;5091902;28;20854;-76
2021/07/31 10:45:15;;;;;;;0.40;0.30;;;22.40;92.40;;;;;;5094460;28;20915;-75
2021/07/31 10:47:46;;;;;;;0.40;0.30;;;22.40;90.00;;;;;;5093598;28;20859;-77
2021/07/31 10:50:32;;;;;;;0.40;0.20;;;22.50;87.20;;;;;;5094469;28;20374;-76
2021/07/31 10:53:02;;;;;;;0.40;0.20;;;22.80;92.90;;;;;;5076844;28;20448;-75
2021/07/31 10:55:37;;;;;;;0.40;0.30;;;23.30;90.40;;;;;;5093494;28;20855;-74
2021/07/31 10:58:06;;;;;;;0.40;0.30;;;22.90;87.30;;;;;;5094307;28;20494;-75
2021/07/31 11:00:40;;;;;;;0.40;0.20;;;23.30;85.40;;;;;;5093483;28;20729;-75
2021/07/31 11:03:13;;;;;;;0.40;0.30;;;23.00;87.20;;;;;;5094018;28;20466;-77
2021/07/31 11:05:48;;;;;;;0.40;0.30;;;22.60;89.60;;;;;;5093606;28;20382;-76
2021/07/31 11:08:18;;;;;;;0.40;0.30;;;22.70;90.00;;;;;;5093774;28;20429;-76
2021/07/31 11:10:48;;;;;;;0.40;0.28;;;22.30;90.40;;;;;;5092974;28;20385;-76
2021/07/31 11:13:17;;;;;;;0.40;0.30;;;22.10;89.00;;;;;;5094081;28;20800;-75
2021/07/31 11:16:07;;;;;;;0.40;0.20;;;22.20;93.30;;;;;;5093205;28;20397;-74
2021/07/31 11:18:35;;;;;;;0.40;0.30;;;22.30;88.10;;;;;;5092913;28;20849;-75
2021/07/31 11:21:38;;;;;;;0.40;0.30;;;22.20;93.60;;;;;;5093694;28;20866;-75
2021/07/31 11:24:04;;;;;;;0.40;0.20;;;22.50;90.10;;;;;;5068639;28;20386;-74
2021/07/31 11:26:49;;;;;;;0.40;0.30;;;22.30;90.40;;;;;;5092781;28;20385;-75
2021/07/31 11:29:19;;;;;;;0.40;0.30;;;22.20;92.10;;;;;;5093797;28;20402;-75
2021/07/31 11:32:03;;;;;;;0.40;0.20;;;22.50;88.10;;;;;;5092856;28;20378;-76
2021/07/31 11:34:37;;;;;;;0.40;0.30;;;22.30;88.90;;;;;;5074804;28;20785;-75
2021/07/31 11:37:03;;;;;;;0.40;0.20;;;22.50;90.90;;;;;;5093413;28;20726;-74
2021/07/31 11:39:29;;;;;;;0.40;0.30;;;23.20;92.60;;;;;;5092853;28;20385;-76
2021/07/31 11:41:57;;;;;;;0.40;0.30;;;23.00;87.00;;;;;;5093634;28;20375;-76
2021/07/31 11:44:34;;;;;;;0.40;0.30;;;22.60;89.60;;;;;;5093192;28;20378;-77
2021/07/31 11:47:00;;;;;;;0.40;0.30;;;23.00;87.50;;;;;;5093058;28;20719;-75
2021/07/31 11:49:32;;;;;;;0.40;0.30;;;22.80;91.30;;;;;;5093208;28;20400;-77
2021/07/31 11:52:00;;;;;;;0.40;0.20;;;22.90;87.10;;;;;;5093244;28;20404;-75
2021/07/31 11:54:30;;;;;;;0.40;0.20;;;22.90;87.20;;;;;;5092869;28;20406;-75
2021/07/31 11:57:01;;;;;;;0.40;0.22;;;23.00;86.70;;;;;;5092847;28;20425;-78
2021/07/31 11:59:38;;;;;;;0.40;0.30;;;22.90;86.00;;;;;;5093216;28;20378;-76
2021/07/31 12:02:04;;;;;;;0.40;0.30;;;23.20;89.90;;;;;;5093044;28;20374;-76
2021/07/31 12:04:50;;;;;;;0.40;0.20;;;23.20;89.60;;;;;;5092406;28;20378;-76
2021/07/31 12:07:18;;;;;;;0.40;0.22;;;23.30;85.70;;;;;;5092336;28;20906;-79
2021/07/31 12:10:00;;;;;;;0.40;0.30;;;23.20;85.50;;;;;;5091974;28;20378;-77
2021/07/31 12:12:26;;;;;;;0.40;0.30;;;23.20;85.80;;;;;;5092433;28;20944;-76
2021/07/31 12:15:17;;;;;;;0.40;0.20;;;23.10;85.30;;;;;;5092178;28;20410;-75
2021/07/31 12:17:56;;;;;;;0.40;0.20;;;23.30;91.00;;;;;;5061841;28;20483;-75
2021/07/31 12:20:36;;;;;;;0.40;0.30;;;23.20;91.80;;;;;;5072422;28;20423;-77
2021/07/31 12:23:06;;;;;;;0.40;0.30;;;23.50;84.70;;;;;;5072656;28;20471;-76
2021/07/31 12:25:32;;;;;;;0.40;0.25;;;23.30;88.10;;;;;;5087309;28;20430;-75
2021/07/31 12:27:58;;;;;;;0.40;0.30;;;23.40;88.80;;;;;;5071511;28;20404;-76
2021/07/31 12:30:50;;;;;;;0.40;0.20;;;23.70;85.80;;;;;;5087514;28;20795;-75
2021/07/31 12:33:20;;;;;;;0.40;0.30;;;23.30;86.20;;;;;;5067502;28;20772;-75
2021/07/31 12:36:01;;;;;;;0.40;0.30;;;23.40;88.40;;;;;;5071357;28;20459;-75
2021/07/31 12:38:28;;;;;;;0.40;0.30;;;23.50;82.90;;;;;;5072264;28;20474;-77
2021/07/31 12:40:54;;;;;;;0.40;0.20;;;23.30;82.30;;;;;;5071601;28;20784;-76
2021/07/31 12:43:20;;;;;;;0.40;0.30;;;23.30;82.30;;;;;;5071976;28;20384;-75
2021/07/31 12:45:46;;;;;;;0.40;0.20;;;23.70;90.80;;;;;;5071334;28;20371;-76
2021/07/31 12:48:13;;;;;;;0.40;0.30;;;23.70;90.20;;;;;;5071770;28;20379;-76
2021/07/31 12:50:42;;;;;;;0.40;0.30;;;24.30;83.80;;;;;;5071274;28;20372;-76
2021/07/31 12:53:17;;;;;;;0.40;0.30;;;24.50;83.50;;;;;;5071363;28;20876;-77